首页
METAR-TAF:

METAR-TAF

机场 :

邁亞密國際機場

迈阿密, 佛罗里达州, 美国

纬度: 25-47-26N, 经度: 080-18-59W, 海拔: 3米

当前天气观测

该预报发布于8分钟前的20:53 UTC
风速11节,风向东转东北
温度 30°C
湿度 52%
气压 1013 hPa
能見度: 16.1公里
多云层高于4200英尺
多云层高于5000英尺
多云层高于25000英尺

METAR: KMIA 232053Z 06011KT 10SM BKN042 BKN050 BKN250 30/19 A2991 RMK AO2 SLP128 T03000194 56015

时间: 17:01 (21:01 UTC)

预报

该预报发布于3小时和30分钟前的17:31 UTC
预报有效从23日的 18点(UTC)到 24日的 24点(UTC)
风速15节,风向东北
能見度: 10公里
散云层高于5000英尺
散云层高于25000英尺
从 24日的 0100点(UTC)
风速10节,风向东转东北
能見度: 10公里
少量云层高于3000英尺
从 24日的 0500点(UTC)
风速5节,风向东转东北
能見度: 10公里
少量云层高于3000英尺
散云层高于5000英尺
从 24日的 1500点(UTC)
风速10节,风向东转东北
能見度: 10公里
散云层高于3000英尺
散云层高于8000英尺
从 24日的 2300点(UTC)
风速7节,风向东北
能見度: 10公里
少量云层高于3000英尺
少量云层高于8000英尺

TAF: KMIA 231731Z 2318/2424 05015KT P6SM SCT050 SCT250 FM240100 06010KT P6SM FEW030 FM240500 06005KT P6SM FEW030 SCT050 FM241500 06010KT P6SM SCT030 SCT080 FM242300 05007KT P6SM FEW030 FEW080

超过4000个机场的气象观测和天气预报(METAR&TAF报告)。

可查询的气象台以黄色和红色小点在地图上表示。

将鼠标移到小点上方,可查看气象台名称。

然后点击查看天气观测和预报。

如需切换地图:点击带黑十字的绿色按钮放大地图;点击带横线的绿色按钮缩小地图;或者点击绿色箭头查看邻近地区的地图。


METAR-TAF: